Terminal Aerodrome Forecast
Issued by NWS Birmingham, AL

Home | Current Version | Previous Version | Text Only | Print | Product List | Glossary On
Versions: 1 2 3 4 5 6 7 8 9 10 11 12 13 14 15 16 17 18 19 20
000
FTUS44 KBMX 280520
TAFBHM
TAF
KBHM 280520Z 2806/2906 04003KT P6SM BKN250
     FM281900 05007KT P6SM -RA BKN025 OVC100=

USA.gov is the U.S. government's official web portal to all federal, state and local government web resources and services.